メインページ
METAR-TAF:

METAR-TAF

空港 :

ニノイ・アキノ国際空港

マニラ, フィリピン

緯度: 14-31N, 経度: 121-00E, 海抜: 14m

現時点の気象観測

当レポートは41分前の05:00(UTC)に作成
南東の風 7kt、から南/南西の間で変化する
気温 36°C
湿度 45%
気圧 1012 hPa
視程10km以上
高度2500ftの雲はほとんどない

METAR: RPLL 150500Z 14007KT 080V210 9999 FEW025 36/22 Q1012 NOSIG RMK A2988

時間: 13:41 (05:41 UTC)

予報

当レポートは41分前の05:00(UTC)に作成
予報は15日の 06時(UTC)から 16日の 12時(UTC)まで有効
東/南東の風 9kt
視程10km以上
高度2500ftの雲はほとんどない
15日の 06時(UTC)から 15日の 10時(UTC)まで一時的に
東/南東の風 14kt
16日の 04時(UTC)から 16日の 10時(UTC)まで一時的に
南東の風 15kt

TAF: RPLL 150500Z 1506/1612 12009KT 9999 FEW025 TX36/1506Z TN27/1521Z TEMPO 1506/1510 12014KT TEMPO 1604/1610 13015KT

4,000以上の空港の気象観測と天気予報(METAR報とTAF報)

利用可能な観測所は地図上に黄色い丸と赤い丸で示す。

丸の上にカーソルを重ねると観測所名を参照できる。

次にクリックすると気象観測と天気予報を参照できる。

マップの切り替え:黒色「×」印の緑ボタンをクリックして拡大、「-」印の緑ボタンをクリックして縮小、緑色の三角印をクリックして隣りの地図に切り替え


METAR-TAF: